Time;durP1;ratioP1;P1;durP2;ratioP2;P2;SDS_P1;SDS_P2;PMS_P1;PMS_P2;Temp;Humidity;BMP_temperature;BMP_pressure;BME280_temperature;BME280_humidity;BME280_pressure;Samples;Min_cycle;Max_cycle;Signal;HPM_P1;HPM_P2
2022/07/04 00:01:11;;;;;;;12.98;3.35;;;;;;;;;;5038241;28;20033;-76
2022/07/04 00:03:37;;;;;;;12.50;3.22;;;;;;;;;;5043008;28;20083;-75
2022/07/04 00:06:03;;;;;;;9.70;3.55;;;;;;;;;;5045996;28;20057;-75
2022/07/04 00:08:29;;;;;;;12.80;3.78;;;;;;;;;;5045807;28;20068;-75
2022/07/04 00:10:54;;;;;;;11.38;3.33;;;;;;;;;;5053166;28;20045;-73
2022/07/04 00:13:20;;;;;;;11.45;4.00;;;;;;;;;;5055191;28;20073;-74
2022/07/04 00:15:46;;;;;;;14.05;3.40;;;;;;;;;;5052589;28;20022;-74
2022/07/04 00:18:12;;;;;;;8.90;3.15;;;;;;;;;;5055535;28;20033;-75
2022/07/04 00:20:38;;;;;;;9.18;3.53;;;;;;;;;;5054416;28;20033;-74
2022/07/04 00:23:04;;;;;;;8.38;3.70;;;;;;;;;;5051926;28;20018;-75
2022/07/04 00:25:30;;;;;;;7.97;3.70;;;;;;;;;;5035712;28;20075;-75
2022/07/04 00:27:56;;;;;;;11.82;3.42;;;;;;;;;;5036823;28;20018;-76
2022/07/04 00:30:22;;;;;;;16.17;3.97;;;;;;;;;;5036654;28;20110;-74
2022/07/04 00:32:48;;;;;;;16.27;4.25;;;;;;;;;;5046857;28;20025;-75
2022/07/04 00:35:14;;;;;;;14.05;3.83;;;;;;;;;;5050488;28;20059;-76
2022/07/04 00:37:40;;;;;;;18.48;4.63;;;;;;;;;;5051272;28;20048;-74
2022/07/04 00:40:06;;;;;;;11.10;4.13;;;;;;;;;;5051101;28;20033;-75
2022/07/04 00:42:32;;;;;;;12.50;4.55;;;;;;;;;;5041732;28;20128;-76
2022/07/04 00:44:58;;;;;;;17.83;5.30;;;;;;;;;;5053486;28;20021;-74
2022/07/04 00:47:24;;;;;;;15.73;5.30;;;;;;;;;;5057165;28;20041;-75
2022/07/04 00:49:50;;;;;;;11.80;4.82;;;;;;;;;;5041473;28;20390;-75
2022/07/04 00:52:17;;;;;;;14.90;5.15;;;;;;;;;;5061314;22;20103;-73
2022/07/04 00:54:43;;;;;;;17.63;6.05;;;;;;;;;;5037607;28;20022;-73
2022/07/04 00:57:09;;;;;;;16.67;5.25;;;;;;;;;;5037316;28;20429;-74
2022/07/04 00:59:35;;;;;;;25.33;6.53;;;;;;;;;;5037093;28;20105;-74
2022/07/04 01:02:01;;;;;;;14.55;5.38;;;;;;;;;;5036566;28;20029;-73
2022/07/04 01:04:27;;;;;;;17.67;5.93;;;;;;;;;;5036557;28;20021;-73
2022/07/04 01:06:53;;;;;;;13.55;5.68;;;;;;;;;;5035988;28;20045;-74
2022/07/04 01:09:19;;;;;;;15.85;5.88;;;;;;;;;;5036357;28;20413;-74
2022/07/04 01:11:45;;;;;;;12.15;6.10;;;;;;;;;;5035329;28;20025;-73
2022/07/04 01:14:11;;;;;;;16.50;7.20;;;;;;;;;;5036185;28;20079;-75
2022/07/04 01:16:37;;;;;;;20.42;8.93;;;;;;;;;;5036039;28;20072;-74
2022/07/04 01:19:03;;;;;;;17.95;7.90;;;;;;;;;;5040305;28;20026;-73
2022/07/04 01:21:31;;;;;;;20.23;7.63;;;;;;;;;;5036064;28;20025;-74
2022/07/04 01:23:57;;;;;;;17.02;7.93;;;;;;;;;;5036194;28;20497;-72
2022/07/04 01:26:22;;;;;;;14.55;8.05;;;;;;;;;;5036180;28;20112;-74
2022/07/04 01:28:48;;;;;;;18.70;8.70;;;;;;;;;;5036017;28;20037;-74
2022/07/04 01:31:14;;;;;;;22.50;8.70;;;;;;;;;;5035869;28;20029;-75
2022/07/04 01:33:40;;;;;;;21.85;9.00;;;;;;;;;;5035764;28;20025;-73
2022/07/04 01:36:06;;;;;;;21.20;9.70;;;;;;;;;;5036101;28;20029;-74
2022/07/04 01:38:32;;;;;;;20.10;8.18;;;;;;;;;;5035912;28;20065;-73
2022/07/04 01:40:58;;;;;;;15.18;7.82;;;;;;;;;;5035812;28;20033;-73
2022/07/04 01:43:24;;;;;;;21.00;9.80;;;;;;;;;;5035832;28;20053;-73
2022/07/04 01:45:50;;;;;;;18.90;9.77;;;;;;;;;;5034598;28;20115;-74
2022/07/04 01:48:16;;;;;;;24.35;10.98;;;;;;;;;;5035939;28;20037;-73
2022/07/04 01:50:42;;;;;;;17.15;9.88;;;;;;;;;;5034807;28;20037;-72
2022/07/04 01:53:08;;;;;;;26.10;10.55;;;;;;;;;;5035186;28;20120;-74
2022/07/04 01:55:34;;;;;;;25.33;10.55;;;;;;;;;;5035157;28;20036;-72
2022/07/04 01:58:00;;;;;;;29.25;11.63;;;;;;;;;;5035723;28;20030;-73
2022/07/04 02:03:11;;;;;;;25.15;11.13;;;;;;;;;;5035768;28;20087;-73
2022/07/04 02:05:37;;;;;;;20.42;11.00;;;;;;;;;;5034979;28;20507;-74
2022/07/04 02:08:04;;;;;;;20.52;11.82;;;;;;;;;;5035541;28;20029;-75
2022/07/04 02:10:29;;;;;;;25.00;13.00;;;;;;;;;;5035415;28;20033;-73
2022/07/04 02:13:01;;;;;;;30.98;13.63;;;;;;;;;;5035430;28;20186;-73
2022/07/04 02:15:37;;;;;;;32.13;14.55;;;;;;;;;;5035278;28;20025;-74
2022/07/04 02:18:04;;;;;;;26.90;14.55;;;;;;;;;;5036459;28;20036;-74
2022/07/04 02:20:30;;;;;;;22.25;13.95;;;;;;;;;;5036970;28;20390;-73
2022/07/04 02:22:56;;;;;;;30.20;15.52;;;;;;;;;;5033791;28;20021;-73
2022/07/04 02:25:22;;;;;;;24.33;14.15;;;;;;;;;;5034747;28;20033;-73
2022/07/04 02:27:48;;;;;;;26.17;14.98;;;;;;;;;;5035229;28;20065;-74
2022/07/04 02:30:14;;;;;;;28.60;15.52;;;;;;;;;;5034687;28;20034;-73
2022/07/04 02:32:41;;;;;;;27.10;14.30;;;;;;;;;;5035641;28;20305;-73
2022/07/04 02:35:07;;;;;;;31.30;15.02;;;;;;;;;;5033467;28;20021;-74
2022/07/04 02:37:33;;;;;;;27.60;14.27;;;;;;;;;;5034787;28;20040;-74
2022/07/04 02:39:59;;;;;;;26.83;14.95;;;;;;;;;;5034699;28;20030;-75
2022/07/04 02:42:28;;;;;;;20.88;13.38;;;;;;;;;;5034765;28;20509;-72
2022/07/04 02:44:54;;;;;;;24.27;13.80;;;;;;;;;;5034453;28;20083;-74
2022/07/04 02:47:20;;;;;;;25.45;13.32;;;;;;;;;;5035103;28;20448;-73
2022/07/04 02:49:46;;;;;;;23.25;13.63;;;;;;;;;;5035466;28;20026;-75
2022/07/04 02:52:13;;;;;;;22.25;12.90;;;;;;;;;;5034724;28;20494;-72
2022/07/04 02:54:39;;;;;;;24.25;14.13;;;;;;;;;;5034507;28;20021;-74
2022/07/04 02:57:05;;;;;;;28.13;13.25;;;;;;;;;;5034427;28;20056;-73
2022/07/04 02:59:31;;;;;;;21.90;12.52;;;;;;;;;;5034732;28;20017;-75
2022/07/04 03:01:57;;;;;;;23.55;12.30;;;;;;;;;;5034481;28;20030;-73
2022/07/04 03:04:23;;;;;;;26.17;13.13;;;;;;;;;;5033592;28;20030;-74
2022/07/04 03:06:49;;;;;;;17.50;12.45;;;;;;;;;;5034520;28;20057;-74
2022/07/04 03:09:15;;;;;;;23.85;14.32;;;;;;;;;;5036081;28;20432;-77
2022/07/04 03:11:56;;;;;;;25.23;13.57;;;;;;;;;;5053844;28;20028;-72
2022/07/04 03:14:22;;;;;;;18.70;12.20;;;;;;;;;;5056937;28;20030;-75
2022/07/04 03:16:48;;;;;;;21.42;12.23;;;;;;;;;;5035981;28;20072;-74
2022/07/04 03:19:17;;;;;;;20.42;12.75;;;;;;;;;;5034242;28;20033;-75
2022/07/04 03:21:43;;;;;;;25.50;13.95;;;;;;;;;;5035102;28;20029;-75
2022/07/04 03:24:09;;;;;;;26.30;13.52;;;;;;;;;;5038692;28;20637;-75
2022/07/04 03:26:35;;;;;;;22.48;13.48;;;;;;;;;;5045716;28;20033;-73
2022/07/04 03:29:01;;;;;;;24.83;14.25;;;;;;;;;;5036268;28;20045;-74
2022/07/04 03:31:28;;;;;;;33.00;16.38;;;;;;;;;;5033325;28;20086;-75
2022/07/04 03:33:54;;;;;;;23.60;14.43;;;;;;;;;;5033821;28;20039;-74
2022/07/04 03:36:20;;;;;;;29.05;14.13;;;;;;;;;;5032882;28;20052;-74
2022/07/04 03:38:46;;;;;;;24.02;15.10;;;;;;;;;;5034999;28;20060;-74
2022/07/04 03:41:12;;;;;;;24.83;15.40;;;;;;;;;;5034851;28;20098;-74
2022/07/04 03:43:38;;;;;;;26.10;16.85;;;;;;;;;;5033071;28;20034;-74
2022/07/04 03:46:04;;;;;;;28.23;17.63;;;;;;;;;;5034504;28;20068;-73
2022/07/04 03:48:30;;;;;;;33.50;17.88;;;;;;;;;;5041150;28;20039;-74
2022/07/04 03:50:56;;;;;;;30.77;17.50;;;;;;;;;;5044360;28;20398;-74
2022/07/04 03:53:22;;;;;;;27.50;18.38;;;;;;;;;;5044198;28;20033;-72
2022/07/04 03:55:48;;;;;;;28.90;17.50;;;;;;;;;;5044152;28;20029;-75
2022/07/04 03:58:14;;;;;;;24.60;17.25;;;;;;;;;;5042921;28;20029;-74
2022/07/04 04:00:41;;;;;;;31.05;18.88;;;;;;;;;;5046686;28;20029;-72
2022/07/04 04:05:26;;;;;;;25.77;16.75;;;;;;;;;;5046200;28;20473;-73
2022/07/04 04:05:53;;;;;;;27.00;17.63;;;;;;;;;;5046410;28;20126;-73
2022/07/04 04:08:19;;;;;;;36.20;18.40;;;;;;;;;;5045819;28;20037;-74
2022/07/04 04:10:45;;;;;;;27.75;16.45;;;;;;;;;;5044359;28;20033;-75
2022/07/04 04:13:11;;;;;;;25.80;14.60;;;;;;;;;;5034389;28;20034;-74
2022/07/04 04:15:37;;;;;;;29.08;17.35;;;;;;;;;;5034543;28;20028;-74
2022/07/04 04:18:03;;;;;;;25.85;16.17;;;;;;;;;;5047119;28;20044;-75
2022/07/04 04:20:29;;;;;;;28.58;15.65;;;;;;;;;;5038002;28;20029;-74
2022/07/04 04:22:55;;;;;;;27.80;15.80;;;;;;;;;;5033761;28;20371;-74
2022/07/04 04:25:21;;;;;;;27.30;16.67;;;;;;;;;;5032146;28;20029;-75
2022/07/04 04:27:47;;;;;;;19.35;13.63;;;;;;;;;;5032156;28;20109;-75
2022/07/04 04:30:13;;;;;;;23.08;13.90;;;;;;;;;;5033430;28;20442;-74
2022/07/04 04:32:39;;;;;;;27.27;14.38;;;;;;;;;;5033554;28;20397;-73
2022/07/04 04:35:05;;;;;;;23.08;13.48;;;;;;;;;;5033523;28;20037;-74
2022/07/04 04:37:31;;;;;;;24.63;14.70;;;;;;;;;;5032034;28;20113;-75
2022/07/04 04:39:57;;;;;;;29.58;13.88;;;;;;;;;;5033463;28;20521;-75
2022/07/04 04:42:23;;;;;;;17.98;11.85;;;;;;;;;;5033238;28;20449;-74
2022/07/04 04:44:49;;;;;;;24.52;13.23;;;;;;;;;;5033257;28;20112;-73
2022/07/04 04:47:15;;;;;;;20.48;11.68;;;;;;;;;;5034622;28;20079;-75
2022/07/04 04:49:40;;;;;;;21.20;11.60;;;;;;;;;;5033164;28;20048;-74
2022/07/04 04:52:07;;;;;;;19.70;11.38;;;;;;;;;;5033819;28;20033;-74
2022/07/04 04:54:36;;;;;;;19.67;12.07;;;;;;;;;;5032816;28;20096;-74
2022/07/04 04:57:02;;;;;;;17.92;11.50;;;;;;;;;;5031790;28;20033;-74
2022/07/04 04:59:31;;;;;;;16.45;10.43;;;;;;;;;;5033764;28;20263;-74
2022/07/04 05:01:58;;;;;;;21.20;10.55;;;;;;;;;;5033506;28;20022;-74
2022/07/04 05:04:24;;;;;;;15.10;9.38;;;;;;;;;;5032909;28;20100;-74
2022/07/04 05:06:50;;;;;;;21.52;9.13;;;;;;;;;;5032930;28;20517;-74
2022/07/04 05:09:17;;;;;;;18.83;8.73;;;;;;;;;;5034065;28;20109;-74
2022/07/04 05:11:43;;;;;;;17.83;7.97;;;;;;;;;;5033759;28;20032;-73
2022/07/04 05:14:09;;;;;;;14.60;7.68;;;;;;;;;;5038823;28;20112;-75
2022/07/04 05:16:35;;;;;;;15.52;7.00;;;;;;;;;;5038510;28;20049;-74
2022/07/04 05:19:01;;;;;;;12.73;6.60;;;;;;;;;;5044506;28;20037;-74
2022/07/04 05:21:28;;;;;;;15.98;6.70;;;;;;;;;;5038075;28;20041;-75
2022/07/04 05:23:54;;;;;;;12.63;6.15;;;;;;;;;;5037156;28;20033;-72
2022/07/04 05:26:20;;;;;;;19.83;5.97;;;;;;;;;;5037769;28;20100;-73
2022/07/04 05:28:46;;;;;;;11.32;4.75;;;;;;;;;;5035676;28;20060;-74
2022/07/04 05:31:11;;;;;;;15.60;4.93;;;;;;;;;;5036859;28;20121;-74
2022/07/04 05:33:37;;;;;;;12.48;4.03;;;;;;;;;;5037194;28;20462;-73
2022/07/04 05:36:03;;;;;;;18.10;4.20;;;;;;;;;;5036815;28;20029;-74
2022/07/04 05:38:29;;;;;;;12.50;3.83;;;;;;;;;;5037989;28;20118;-73
2022/07/04 05:40:55;;;;;;;13.65;4.03;;;;;;;;;;5038853;28;20081;-74
2022/07/04 05:43:21;;;;;;;11.13;4.13;;;;;;;;;;5049314;28;20044;-76
2022/07/04 05:45:52;;;;;;;10.63;3.63;;;;;;;;;;5052662;28;20029;-74
2022/07/04 05:48:18;;;;;;;8.02;2.90;;;;;;;;;;5045108;28;20132;-75
2022/07/04 05:50:43;;;;;;;10.35;3.47;;;;;;;;;;5038253;28;20089;-75
2022/07/04 05:53:09;;;;;;;9.05;3.33;;;;;;;;;;5040442;28;20026;-73
2022/07/04 05:55:35;;;;;;;11.10;3.78;;;;;;;;;;5043338;28;20486;-76
2022/07/04 05:58:01;;;;;;;11.35;3.72;;;;;;;;;;5036790;28;20029;-73
2022/07/04 06:00:27;;;;;;;15.23;3.03;;;;;;;;;;5039019;28;20028;-74
2022/07/04 06:02:53;;;;;;;7.43;2.55;;;;;;;;;;5042434;28;20418;-74
2022/07/04 06:05:19;;;;;;;7.82;2.60;;;;;;;;;;5038870;28;20029;-73
2022/07/04 06:07:48;;;;;;;13.07;2.80;;;;;;;;;;5038888;28;20080;-74
2022/07/04 06:10:14;;;;;;;6.18;2.42;;;;;;;;;;5039356;28;20018;-73
2022/07/04 06:12:40;;;;;;;11.82;3.10;;;;;;;;;;5035317;28;20024;-75
2022/07/04 06:15:06;;;;;;;16.77;3.20;;;;;;;;;;5036111;28;20029;-74
2022/07/04 06:17:32;;;;;;;10.95;2.85;;;;;;;;;;5036748;28;20037;-73
2022/07/04 06:19:58;;;;;;;12.90;2.60;;;;;;;;;;5037831;28;20033;-74
2022/07/04 06:22:24;;;;;;;7.47;2.20;;;;;;;;;;5036659;28;20029;-74
2022/07/04 06:24:50;;;;;;;9.13;2.35;;;;;;;;;;5037156;28;20109;-77
2022/07/04 06:27:16;;;;;;;10.07;2.40;;;;;;;;;;5037004;28;20060;-76
2022/07/04 06:29:42;;;;;;;8.57;1.90;;;;;;;;;;5036190;28;20056;-73
2022/07/04 06:32:08;;;;;;;10.73;2.92;;;;;;;;;;5035028;28;20091;-75
2022/07/04 06:37:19;;;;;;;8.20;2.22;;;;;;;;;;5035404;28;20125;-75
2022/07/04 06:39:45;;;;;;;8.93;2.47;;;;;;;;;;5035536;28;20486;-74
2022/07/04 06:42:11;;;;;;;11.50;2.58;;;;;;;;;;5034628;28;20031;-75
2022/07/04 06:44:37;;;;;;;7.30;2.30;;;;;;;;;;5034489;28;20057;-75
2022/07/04 06:47:03;;;;;;;10.10;2.60;;;;;;;;;;5034607;28;20034;-74
2022/07/04 06:49:28;;;;;;;9.70;2.65;;;;;;;;;;5035100;28;20029;-74
2022/07/04 06:51:54;;;;;;;11.32;2.70;;;;;;;;;;5081905;22;20488;-75
2022/07/04 06:54:21;;;;;;;8.43;2.53;;;;;;;;;;5075297;28;20044;-76
2022/07/04 06:56:47;;;;;;;9.32;2.40;;;;;;;;;;5073907;28;20464;-76
2022/07/04 06:59:13;;;;;;;10.68;2.22;;;;;;;;;;5073970;28;20039;-76
2022/07/04 07:01:39;;;;;;;9.38;2.30;;;;;;;;;;5073435;28;20028;-76
2022/07/04 07:04:05;;;;;;;8.02;1.90;;;;;;;;;;5060276;28;20037;-77
2022/07/04 07:06:31;;;;;;;11.57;1.92;;;;;;;;;;5074175;28;20024;-75
2022/07/04 07:08:57;;;;;;;7.22;1.77;;;;;;;;;;5073609;28;20091;-76
2022/07/04 07:11:23;;;;;;;9.18;2.00;;;;;;;;;;5073647;28;20027;-76
2022/07/04 07:13:53;;;;;;;7.30;1.98;;;;;;;;;;5074813;28;20025;-75
2022/07/04 07:16:19;;;;;;;8.10;2.00;;;;;;;;;;5076110;28;20035;-75
2022/07/04 07:18:46;;;;;;;12.90;2.20;;;;;;;;;;5073999;28;20024;-76
2022/07/04 07:21:12;;;;;;;9.55;1.95;;;;;;;;;;5073085;28;20055;-76
2022/07/04 07:23:39;;;;;;;13.60;1.90;;;;;;;;;;5073485;28;20105;-76
2022/07/04 07:26:05;;;;;;;8.57;1.70;;;;;;;;;;5072400;28;20020;-75
2022/07/04 07:28:31;;;;;;;10.52;2.20;;;;;;;;;;5073142;28;20447;-77
2022/07/04 07:30:57;;;;;;;11.57;1.58;;;;;;;;;;5078080;28;20086;-76
2022/07/04 07:33:23;;;;;;;26.45;3.17;;;;;;;;;;5075499;28;20020;-75
2022/07/04 07:35:49;;;;;;;6.50;1.63;;;;;;;;;;5073793;28;20759;-75
2022/07/04 07:38:14;;;;;;;7.05;1.50;;;;;;;;;;5074535;28;20550;-76
2022/07/04 07:40:40;;;;;;;5.72;1.60;;;;;;;;;;5074000;28;20477;-76
2022/07/04 07:43:07;;;;;;;11.38;1.98;;;;;;;;;;5073375;28;20028;-76
2022/07/04 07:45:33;;;;;;;13.23;1.73;;;;;;;;;;5081912;28;20063;-75
2022/07/04 07:47:59;;;;;;;7.85;1.92;;;;;;;;;;5060883;28;20036;-77
2022/07/04 07:50:25;;;;;;;6.75;1.25;;;;;;;;;;5072412;28;20025;-75
2022/07/04 07:52:51;;;;;;;9.70;1.50;;;;;;;;;;5072558;28;20068;-76
2022/07/04 07:55:17;;;;;;;5.65;1.55;;;;;;;;;;5073168;28;20640;-76
2022/07/04 07:57:43;;;;;;;12.75;2.30;;;;;;;;;;5072334;28;20024;-81
2022/07/04 08:00:09;;;;;;;8.20;1.70;;;;;;;;;;5072750;28;20115;-76
2022/07/04 08:05:20;;;;;;;;;;;;;;;;;;5072634;28;20094;-76
2022/07/04 08:07:46;;;;;;;7.65;2.95;;;;;;;;;;5072105;28;20357;-75
2022/07/04 08:10:12;;;;;;;7.57;1.65;;;;;;;;;;5072533;28;20028;-77
2022/07/04 08:12:38;;;;;;;9.10;1.83;;;;;;;;;;5072276;28;20027;-77
2022/07/04 08:15:05;;;;;;;10.93;1.60;;;;;;;;;;5054662;28;20024;-77
2022/07/04 08:17:31;;;;;;;7.55;1.50;;;;;;;;;;5072836;28;20032;-76
2022/07/04 08:19:57;;;;;;;6.93;1.45;;;;;;;;;;5074767;28;20508;-77
2022/07/04 08:22:22;;;;;;;6.32;1.90;;;;;;;;;;5092548;28;20044;-74
2022/07/04 08:24:49;;;;;;;8.73;1.55;;;;;;;;;;5067015;28;20086;-76
2022/07/04 08:27:14;;;;;;;5.07;1.20;;;;;;;;;;5074682;28;20051;-76
2022/07/04 08:29:41;;;;;;;10.40;1.60;;;;;;;;;;5075730;28;20104;-76
2022/07/04 08:32:07;;;;;;;4.18;0.95;;;;;;;;;;5073315;28;20025;-77
2022/07/04 08:34:33;;;;;;;4.32;1.30;;;;;;;;;;5073879;28;20017;-76
2022/07/04 08:36:59;;;;;;;4.57;1.30;;;;;;;;;;5072704;28;20036;-76
2022/07/04 08:39:25;;;;;;;9.45;1.40;;;;;;;;;;5078140;28;20032;-77
2022/07/04 08:41:52;;;;;;;5.38;1.15;;;;;;;;;;5074076;28;20037;-76
2022/07/04 08:44:20;;;;;;;5.10;1.20;;;;;;;;;;5058047;28;20032;-76
2022/07/04 08:46:47;;;;;;;5.78;1.30;;;;;;;;;;5057769;28;20166;-76
2022/07/04 08:49:19;;;;;;;10.63;2.30;;;;;;;;;;5055621;28;20459;-76
2022/07/04 08:51:48;;;;;;;11.48;2.13;;;;;;;;;;5051755;28;20037;-76
2022/07/04 08:59:48;;;;;;;5.50;2.15;;;;;;;;;;5068108;28;20440;-77
2022/07/04 09:02:14;;;;;;;4.13;1.23;;;;;;;;;;5057054;28;20025;-75
2022/07/04 09:04:41;;;;;;;6.93;1.67;;;;;;;;;;5066385;28;20028;-76
2022/07/04 09:07:07;;;;;;;13.95;2.55;;;;;;;;;;5055386;28;20633;-76
2022/07/04 09:09:33;;;;;;;5.18;1.50;;;;;;;;;;5055502;28;20031;-75
2022/07/04 09:11:59;;;;;;;4.55;1.20;;;;;;;;;;5055481;28;20028;-78
2022/07/04 09:14:25;;;;;;;5.07;1.23;;;;;;;;;;5055489;28;20410;-76
2022/07/04 09:16:53;;;;;;;4.90;1.20;;;;;;;;;;5055144;28;20499;-75
2022/07/04 09:19:23;;;;;;;4.68;1.30;;;;;;;;;;5055735;28;20494;-78
2022/07/04 09:21:49;;;;;;;6.65;2.35;;;;;;;;;;5055192;28;20068;-76
2022/07/04 09:24:16;;;;;;;6.22;1.40;;;;;;;;;;5055043;28;20159;-75
2022/07/04 09:26:45;;;;;;;6.05;1.25;;;;;;;;;;5054471;28;20025;-78
2022/07/04 09:29:12;;;;;;;5.93;1.20;;;;;;;;;;5054360;28;20017;-75
2022/07/04 09:31:38;;;;;;;3.50;0.90;;;;;;;;;;5055154;28;20037;-81
2022/07/04 09:34:05;;;;;;;4.35;1.00;;;;;;;;;;5055120;28;20432;-76
2022/07/04 09:36:32;;;;;;;2.40;1.02;;;;;;;;;;5055518;28;20028;-77
2022/07/04 09:39:11;;;;;;;5.05;1.20;;;;;;;;;;5055482;28;20090;-77
2022/07/04 09:41:54;;;;;;;4.82;0.98;;;;;;;;;;5055294;28;20450;-75
2022/07/04 09:44:20;;;;;;;6.10;1.30;;;;;;;;;;5037070;28;20555;-76
2022/07/04 09:46:46;;;;;;;4.50;1.02;;;;;;;;;;5055132;28;20051;-76
2022/07/04 09:49:12;;;;;;;2.80;1.10;;;;;;;;;;5055274;28;20045;-77
2022/07/04 09:51:42;;;;;;;6.55;1.30;;;;;;;;;;5055133;28;20025;-79
2022/07/04 09:54:26;;;;;;;9.90;1.00;;;;;;;;;;5055233;28;20066;-78
2022/07/04 09:56:53;;;;;;;8.07;1.35;;;;;;;;;;5037212;28;20025;-76
2022/07/04 09:59:19;;;;;;;7.60;0.90;;;;;;;;;;5054566;28;20025;-75
2022/07/04 10:01:46;;;;;;;4.50;0.80;;;;;;;;;;5054456;28;20037;-76
2022/07/04 10:04:13;;;;;;;5.32;0.80;;;;;;;;;;5054601;28;20033;-77
2022/07/04 10:06:40;;;;;;;4.40;1.17;;;;;;;;;;5054606;28;20029;-79
2022/07/04 10:09:07;;;;;;;7.97;1.35;;;;;;;;;;5057226;28;20021;-77
2022/07/04 10:11:34;;;;;;;5.05;1.00;;;;;;;;;;5057999;28;20025;-77
2022/07/04 10:14:00;;;;;;;3.83;0.80;;;;;;;;;;5057759;28;20051;-77
2022/07/04 10:16:26;;;;;;;3.35;0.82;;;;;;;;;;5055395;28;20111;-79
2022/07/04 10:18:54;;;;;;;3.85;1.48;;;;;;;;;;5055024;28;20064;-76
2022/07/04 10:21:20;;;;;;;7.57;2.08;;;;;;;;;;5056607;28;20025;-78
2022/07/04 10:23:48;;;;;;;3.45;1.20;;;;;;;;;;5056286;28;20032;-77
2022/07/04 10:26:14;;;;;;;5.43;1.60;;;;;;;;;;5055098;28;20101;-78
2022/07/04 10:28:40;;;;;;;2.88;0.85;;;;;;;;;;5054464;28;20032;-75
2022/07/04 10:31:06;;;;;;;6.63;1.20;;;;;;;;;;5054179;28;20025;-76
2022/07/04 10:33:32;;;;;;;4.72;1.08;;;;;;;;;;5036719;28;20029;-76
2022/07/04 10:36:03;;;;;;;7.30;2.25;;;;;;;;;;5053947;28;20029;-78
2022/07/04 10:38:29;;;;;;;3.85;1.05;;;;;;;;;;5054051;28;20075;-76
2022/07/04 10:41:02;;;;;;;5.53;1.23;;;;;;;;;;5053403;28;20052;-78
2022/07/04 10:45:57;;;;;;;3.00;1.17;;;;;;;;;;5054919;28;20097;-78
2022/07/04 10:48:23;;;;;;;2.35;0.90;;;;;;;;;;5053892;28;20482;-75
2022/07/04 10:51:05;;;;;;;13.57;7.00;;;;;;;;;;5054478;28;20585;-77
2022/07/04 10:53:32;;;;;;;5.32;1.42;;;;;;;;;;5054620;28;20024;-77
2022/07/04 10:56:17;;;;;;;5.15;1.15;;;;;;;;;;5053880;28;20382;-79
2022/07/04 10:58:43;;;;;;;3.30;0.93;;;;;;;;;;5053977;28;20060;-75
2022/07/04 11:01:16;;;;;;;2.50;0.90;;;;;;;;;;5053505;28;20087;-76
2022/07/04 11:03:46;;;;;;;8.55;1.20;;;;;;;;;;5054807;28;20024;-76
2022/07/04 11:06:44;;;;;;;4.47;1.00;;;;;;;;;;5055337;28;20025;-75
2022/07/04 11:09:11;;;;;;;5.60;0.95;;;;;;;;;;5021126;28;20033;-75
2022/07/04 11:11:52;;;;;;;6.13;1.00;;;;;;;;;;5054398;28;20017;-78
2022/07/04 11:14:37;;;;;;;5.88;1.40;;;;;;;;;;5054680;28;20513;-75
2022/07/04 11:17:04;;;;;;;7.95;2.90;;;;;;;;;;5054551;28;20048;-75
2022/07/04 11:19:30;;;;;;;3.78;1.23;;;;;;;;;;5058849;28;20075;-74
2022/07/04 11:21:56;;;;;;;5.75;1.20;;;;;;;;;;5034924;28;20025;-76
2022/07/04 11:24:22;;;;;;;5.55;1.17;;;;;;;;;;5052995;28;20036;-74
2022/07/04 11:26:48;;;;;;;4.38;1.30;;;;;;;;;;5036478;28;20033;-76
2022/07/04 11:29:15;;;;;;;4.22;1.10;;;;;;;;;;5056180;28;20055;-76
2022/07/04 11:31:42;;;;;;;5.65;1.35;;;;;;;;;;5056879;28;20028;-75
2022/07/04 11:34:08;;;;;;;5.43;1.15;;;;;;;;;;5059680;28;20017;-78
2022/07/04 11:36:34;;;;;;;3.63;0.98;;;;;;;;;;5056651;28;20021;-76
2022/07/04 11:39:02;;;;;;;3.90;1.17;;;;;;;;;;5054508;28;20544;-74
2022/07/04 11:47:15;;;;;;;6.95;1.23;;;;;;;;;;5051846;28;20040;-76
2022/07/04 11:49:43;;;;;;;9.02;1.55;;;;;;;;;;5055205;28;20072;-78
2022/07/04 11:52:09;;;;;;;9.68;2.00;;;;;;;;;;5035844;28;20068;-78
2022/07/04 11:54:35;;;;;;;8.82;1.02;;;;;;;;;;5038500;28;20029;-78
2022/07/04 11:57:10;;;;;;;4.85;1.00;;;;;;;;;;5039982;28;20028;-78
2022/07/04 11:59:36;;;;;;;6.00;1.00;;;;;;;;;;5063101;28;20064;-76
2022/07/04 12:02:13;;;;;;;5.22;1.25;;;;;;;;;;5065182;28;20025;-76
2022/07/04 12:04:40;;;;;;;6.82;1.02;;;;;;;;;;5055334;28;20085;-77
2022/07/04 12:07:10;;;;;;;5.38;1.00;;;;;;;;;;5052343;28;20024;-76
2022/07/04 12:09:36;;;;;;;5.00;1.63;;;;;;;;;;5056301;28;20032;-77
2022/07/04 12:12:02;;;;;;;7.90;1.27;;;;;;;;;;5052862;28;20099;-76
2022/07/04 12:14:28;;;;;;;4.88;1.42;;;;;;;;;;5061093;28;20047;-76
2022/07/04 12:17:14;;;;;;;4.47;1.08;;;;;;;;;;5062667;28;20033;-75
2022/07/04 12:19:50;;;;;;;6.88;1.13;;;;;;;;;;5060294;28;20055;-75
2022/07/04 12:22:25;;;;;;;8.07;1.27;;;;;;;;;;5052333;28;20096;-75
2022/07/04 12:24:51;;;;;;;5.97;2.00;;;;;;;;;;5055531;28;20439;-74
2022/07/04 12:27:18;;;;;;;3.88;1.02;;;;;;;;;;5057527;28;20025;-77
2022/07/04 12:29:48;;;;;;;4.10;1.00;;;;;;;;;;5054528;28;20025;-77
2022/07/04 12:32:14;;;;;;;6.70;1.20;;;;;;;;;;5056568;28;20017;-76
2022/07/04 12:34:40;;;;;;;4.97;1.13;;;;;;;;;;5057891;28;20100;-75
2022/07/04 12:37:09;;;;;;;3.97;1.40;;;;;;;;;;5056926;28;20538;-76
2022/07/04 12:39:37;;;;;;;6.40;0.93;;;;;;;;;;5056226;28;20036;-76
2022/07/04 12:42:16;;;;;;;5.55;1.17;;;;;;;;;;5055937;28;20411;-76
2022/07/04 12:44:43;;;;;;;4.40;1.10;;;;;;;;;;5041971;28;20033;-76
2022/07/04 12:47:10;;;;;;;4.55;1.30;;;;;;;;;;5058251;28;20017;-77
2022/07/04 12:49:36;;;;;;;8.98;4.28;;;;;;;;;;5077065;28;20025;-75
2022/07/04 12:52:10;;;;;;;5.05;1.65;;;;;;;;;;5069913;22;20020;-75
2022/07/04 12:54:37;;;;;;;4.70;1.20;;;;;;;;;;5036286;28;20084;-73
2022/07/04 12:57:18;;;;;;;7.65;1.40;;;;;;;;;;5045308;28;20037;-75
2022/07/04 12:59:44;;;;;;;4.88;1.10;;;;;;;;;;5036106;28;20021;-74
2022/07/04 13:02:11;;;;;;;8.02;1.45;;;;;;;;;;5044562;28;20040;-75
2022/07/04 13:04:38;;;;;;;4.85;1.10;;;;;;;;;;5041688;28;20033;-74
2022/07/04 13:07:17;;;;;;;7.07;1.80;;;;;;;;;;5041943;28;20029;-74
2022/07/04 13:09:43;;;;;;;3.45;1.13;;;;;;;;;;5036976;28;20079;-75
2022/07/04 13:12:26;;;;;;;5.72;1.20;;;;;;;;;;5039168;28;20036;-75
2022/07/04 13:14:53;;;;;;;7.72;1.30;;;;;;;;;;5045247;28;20014;-73
2022/07/04 13:17:19;;;;;;;4.00;1.05;;;;;;;;;;5054742;28;20057;-72
2022/07/04 13:19:45;;;;;;;3.55;0.80;;;;;;;;;;5053384;28;20033;-73
2022/07/04 13:22:12;;;;;;;7.07;1.15;;;;;;;;;;5056007;28;20036;-73
2022/07/04 13:24:38;;;;;;;3.83;1.20;;;;;;;;;;5057408;28;20033;-79
2022/07/04 13:27:10;;;;;;;5.60;1.90;;;;;;;;;;5058079;28;20146;-83
2022/07/04 13:29:36;;;;;;;7.22;1.48;;;;;;;;;;5042075;28;20025;-79
2022/07/04 13:32:03;;;;;;;12.20;4.43;;;;;;;;;;5045312;28;20033;-77
2022/07/04 13:34:29;;;;;;;3.20;1.20;;;;;;;;;;5047489;28;20483;-76
2022/07/04 13:36:55;;;;;;;6.05;1.60;;;;;;;;;;5040228;28;20072;-74
2022/07/04 13:39:22;;;;;;;7.07;2.35;;;;;;;;;;5049963;28;20014;-76
2022/07/04 13:41:48;;;;;;;9.65;2.10;;;;;;;;;;5042027;28;20026;-77
2022/07/04 13:44:15;;;;;;;6.75;2.10;;;;;;;;;;5055960;28;20014;-73
2022/07/04 13:46:42;;;;;;;5.70;1.70;;;;;;;;;;5057465;28;20121;-79
2022/07/04 13:49:08;;;;;;;8.25;1.90;;;;;;;;;;5058709;28;20056;-77
2022/07/04 13:51:34;;;;;;;7.22;2.00;;;;;;;;;;5059424;28;20017;-80
2022/07/04 13:53:59;;;;;;;4.30;1.20;;;;;;;;;;5058536;28;20036;-80
2022/07/04 13:56:26;;;;;;;6.15;1.33;;;;;;;;;;5058519;28;20034;-74
2022/07/04 13:58:52;;;;;;;7.60;1.90;;;;;;;;;;5056824;28;20044;-76
2022/07/04 14:01:19;;;;;;;7.22;1.48;;;;;;;;;;5058046;28;20029;-74
2022/07/04 14:03:45;;;;;;;6.15;1.50;;;;;;;;;;5053882;28;20021;-78
2022/07/04 14:06:11;;;;;;;9.32;1.70;;;;;;;;;;5038560;28;20061;-78
2022/07/04 14:08:37;;;;;;;10.15;1.38;;;;;;;;;;5040638;28;20025;-77
2022/07/04 14:11:03;;;;;;;7.50;1.58;;;;;;;;;;5040809;28;20105;-73
2022/07/04 14:13:30;;;;;;;6.10;1.30;;;;;;;;;;5036755;28;20367;-78
2022/07/04 14:15:56;;;;;;;6.18;1.70;;;;;;;;;;5038982;28;20057;-74
2022/07/04 14:18:22;;;;;;;6.97;1.65;;;;;;;;;;5040375;28;20036;-75
2022/07/04 14:20:49;;;;;;;5.88;1.40;;;;;;;;;;5039136;28;20032;-75
2022/07/04 14:23:39;;;;;;;5.20;1.23;;;;;;;;;;5038374;28;20032;-74
2022/07/04 14:26:02;;;;;;;6.10;1.40;;;;;;;;;;5037696;28;20502;-74
2022/07/04 14:28:28;;;;;;;4.85;1.67;;;;;;;;;;5036493;28;20026;-78
2022/07/04 14:30:53;;;;;;;8.23;2.05;;;;;;;;;;5031943;28;20068;-74
2022/07/04 14:33:19;;;;;;;5.88;1.45;;;;;;;;;;5034391;28;20032;-76
2022/07/04 14:35:45;;;;;;;8.02;1.75;;;;;;;;;;5034651;28;20109;-74
2022/07/04 14:38:11;;;;;;;9.27;1.40;;;;;;;;;;5035127;28;20431;-74
2022/07/04 14:40:38;;;;;;;7.82;1.48;;;;;;;;;;5035110;28;20486;-75
2022/07/04 14:43:04;;;;;;;10.05;1.38;;;;;;;;;;5035165;28;20029;-77
2022/07/04 14:45:30;;;;;;;5.68;1.30;;;;;;;;;;5034735;28;20505;-75
2022/07/04 14:47:56;;;;;;;7.38;1.55;;;;;;;;;;5035971;28;20021;-75
2022/07/04 14:50:22;;;;;;;3.28;1.15;;;;;;;;;;5034994;28;20382;-75
2022/07/04 14:52:50;;;;;;;6.78;1.73;;;;;;;;;;5032489;28;20036;-74
2022/07/04 14:55:16;;;;;;;7.22;1.30;;;;;;;;;;5034369;28;20099;-73